Vista Alegre, Argentina
Current Conditions -  °F | °C
As of 11:00 PM on Wednesday 17 Dec 2014 (Local Time) from SAZN Reporting Station
Clear Clear  
Wind Chill: 64°   Ceiling: Unl
Heat Index: 64°   Visibility: 6mi
Dew Point: 52°   Wind: 0mph
Humidity: 64%   Direction: NA
Pressure: 29.91"   Gusts: NA
Location:  36.05°S, 67.38°W
Report Text: SAZN 180200Z 00000KT CAVOK 18/11 Q1013
Loading
Personal Weather Stations






























Interactive Weather Map New forecast layout! Learn more

10-Day Weather Forecast

Advertisements
Track Severe Weather on mobile